sensor_id;sensor_type;location;lat;lon;timestamp;temperature;humidity
54832;DHT22;40730;53.068;6.572;2023-07-20T00:01:25;14.20;99.90
54832;DHT22;40730;53.068;6.572;2023-07-20T00:03:51;14.30;99.90
54832;DHT22;40730;53.068;6.572;2023-07-20T00:06:24;14.20;99.90
54832;DHT22;40730;53.068;6.572;2023-07-20T00:08:54;14.20;99.90
54832;DHT22;40730;53.068;6.572;2023-07-20T00:11:21;14.20;99.90
54832;DHT22;40730;53.068;6.572;2023-07-20T00:13:46;14.20;99.90
54832;DHT22;40730;53.068;6.572;2023-07-20T00:16:12;14.20;99.90
54832;DHT22;40730;53.068;6.572;2023-07-20T00:18:37;14.10;99.90
54832;DHT22;40730;53.068;6.572;2023-07-20T00:21:03;14.10;99.90
54832;DHT22;40730;53.068;6.572;2023-07-20T00:23:29;14.10;99.90
54832;DHT22;40730;53.068;6.572;2023-07-20T00:25:55;14.10;99.90
54832;DHT22;40730;53.068;6.572;2023-07-20T00:28:20;14.00;99.90
54832;DHT22;40730;53.068;6.572;2023-07-20T00:30:46;14.00;99.90
54832;DHT22;40730;53.068;6.572;2023-07-20T00:33:12;14.10;99.90
54832;DHT22;40730;53.068;6.572;2023-07-20T00:35:39;14.00;99.90
54832;DHT22;40730;53.068;6.572;2023-07-20T00:38:05;14.00;99.90
54832;DHT22;40730;53.068;6.572;2023-07-20T00:40:40;14.00;99.90
54832;DHT22;40730;53.068;6.572;2023-07-20T00:43:07;14.10;99.90
54832;DHT22;40730;53.068;6.572;2023-07-20T00:45:33;14.10;99.90
54832;DHT22;40730;53.068;6.572;2023-07-20T00:48:01;14.00;99.90
54832;DHT22;40730;53.068;6.572;2023-07-20T00:50:27;14.10;99.90
54832;DHT22;40730;53.068;6.572;2023-07-20T00:52:54;14.00;99.90
54832;DHT22;40730;53.068;6.572;2023-07-20T00:55:21;14.00;99.90
54832;DHT22;40730;53.068;6.572;2023-07-20T00:57:47;13.90;99.90
54832;DHT22;40730;53.068;6.572;2023-07-20T01:00:13;13.90;99.90
54832;DHT22;40730;53.068;6.572;2023-07-20T01:02:39;13.80;99.90
54832;DHT22;40730;53.068;6.572;2023-07-20T01:05:05;13.70;99.90
54832;DHT22;40730;53.068;6.572;2023-07-20T01:07:38;13.70;99.90
54832;DHT22;40730;53.068;6.572;2023-07-20T01:12:48;13.70;99.90
54832;DHT22;40730;53.068;6.572;2023-07-20T01:15:13;13.50;99.90
54832;DHT22;40730;53.068;6.572;2023-07-20T01:17:39;13.40;99.90
54832;DHT22;40730;53.068;6.572;2023-07-20T01:20:10;13.40;99.90
54832;DHT22;40730;53.068;6.572;2023-07-20T01:31:21;13.20;99.90
54832;DHT22;40730;53.068;6.572;2023-07-20T01:33:49;13.20;99.90
54832;DHT22;40730;53.068;6.572;2023-07-20T01:36:18;13.10;99.90
54832;DHT22;40730;53.068;6.572;2023-07-20T01:38:44;13.10;99.90
54832;DHT22;40730;53.068;6.572;2023-07-20T01:41:11;13.00;99.90
54832;DHT22;40730;53.068;6.572;2023-07-20T01:43:36;13.00;99.90
54832;DHT22;40730;53.068;6.572;2023-07-20T01:46:02;13.00;99.90
54832;DHT22;40730;53.068;6.572;2023-07-20T01:48:27;12.90;99.90
54832;DHT22;40730;53.068;6.572;2023-07-20T01:50:53;12.90;99.90
54832;DHT22;40730;53.068;6.572;2023-07-20T01:53:20;12.80;99.90
54832;DHT22;40730;53.068;6.572;2023-07-20T01:55:45;12.80;99.90
54832;DHT22;40730;53.068;6.572;2023-07-20T01:58:11;12.70;99.90
54832;DHT22;40730;53.068;6.572;2023-07-20T02:00:37;12.60;99.90
54832;DHT22;40730;53.068;6.572;2023-07-20T02:03:04;12.60;99.90
54832;DHT22;40730;53.068;6.572;2023-07-20T02:05:29;12.50;99.90
54832;DHT22;40730;53.068;6.572;2023-07-20T02:07:55;12.50;99.90
54832;DHT22;40730;53.068;6.572;2023-07-20T02:10:21;12.50;99.90
54832;DHT22;40730;53.068;6.572;2023-07-20T02:12:46;12.50;99.90
54832;DHT22;40730;53.068;6.572;2023-07-20T02:15:14;12.50;99.90
54832;DHT22;40730;53.068;6.572;2023-07-20T02:17:42;12.50;99.90
54832;DHT22;40730;53.068;6.572;2023-07-20T02:20:08;12.50;99.90
54832;DHT22;40730;53.068;6.572;2023-07-20T02:22:36;12.50;99.90
54832;DHT22;40730;53.068;6.572;2023-07-20T02:25:06;12.40;99.90
54832;DHT22;40730;53.068;6.572;2023-07-20T02:27:33;12.40;99.90
54832;DHT22;40730;53.068;6.572;2023-07-20T02:29:58;12.40;99.90
54832;DHT22;40730;53.068;6.572;2023-07-20T02:32:24;12.40;99.90
54832;DHT22;40730;53.068;6.572;2023-07-20T02:34:50;12.30;99.90
54832;DHT22;40730;53.068;6.572;2023-07-20T02:37:16;12.30;99.90
54832;DHT22;40730;53.068;6.572;2023-07-20T02:39:42;12.20;99.90
54832;DHT22;40730;53.068;6.572;2023-07-20T02:42:08;12.20;99.90
54832;DHT22;40730;53.068;6.572;2023-07-20T02:44:33;12.20;99.90
54832;DHT22;40730;53.068;6.572;2023-07-20T02:46:59;12.20;99.90
54832;DHT22;40730;53.068;6.572;2023-07-20T02:49:24;12.20;99.90
54832;DHT22;40730;53.068;6.572;2023-07-20T02:51:50;12.10;99.90
54832;DHT22;40730;53.068;6.572;2023-07-20T02:54:16;12.10;99.90
54832;DHT22;40730;53.068;6.572;2023-07-20T02:56:41;12.00;99.90
54832;DHT22;40730;53.068;6.572;2023-07-20T02:59:08;12.00;99.90
54832;DHT22;40730;53.068;6.572;2023-07-20T03:01:34;12.00;99.90
54832;DHT22;40730;53.068;6.572;2023-07-20T03:03:59;11.90;99.90
54832;DHT22;40730;53.068;6.572;2023-07-20T03:06:25;11.90;99.90
54832;DHT22;40730;53.068;6.572;2023-07-20T03:08:51;11.90;99.90
54832;DHT22;40730;53.068;6.572;2023-07-20T03:11:19;11.90;99.90
54832;DHT22;40730;53.068;6.572;2023-07-20T03:13:46;11.90;99.90
54832;DHT22;40730;53.068;6.572;2023-07-20T03:16:13;11.80;99.90
54832;DHT22;40730;53.068;6.572;2023-07-20T03:18:41;11.70;99.90
54832;DHT22;40730;53.068;6.572;2023-07-20T03:21:08;11.60;99.90
54832;DHT22;40730;53.068;6.572;2023-07-20T03:23:37;11.60;99.90
54832;DHT22;40730;53.068;6.572;2023-07-20T03:26:02;11.50;99.90
54832;DHT22;40730;53.068;6.572;2023-07-20T03:28:28;11.50;99.90
54832;DHT22;40730;53.068;6.572;2023-07-20T03:30:54;11.50;99.90
54832;DHT22;40730;53.068;6.572;2023-07-20T03:33:22;11.40;99.90
54832;DHT22;40730;53.068;6.572;2023-07-20T03:35:48;11.30;99.90
54832;DHT22;40730;53.068;6.572;2023-07-20T03:38:13;11.20;99.90
54832;DHT22;40730;53.068;6.572;2023-07-20T03:40:39;11.10;99.90
54832;DHT22;40730;53.068;6.572;2023-07-20T03:43:04;11.00;99.90
54832;DHT22;40730;53.068;6.572;2023-07-20T03:45:30;10.90;99.90
54832;DHT22;40730;53.068;6.572;2023-07-20T03:47:56;10.80;99.90
54832;DHT22;40730;53.068;6.572;2023-07-20T03:50:21;10.80;99.90
54832;DHT22;40730;53.068;6.572;2023-07-20T03:52:47;10.70;99.90
54832;DHT22;40730;53.068;6.572;2023-07-20T03:55:13;10.70;99.90
54832;DHT22;40730;53.068;6.572;2023-07-20T03:57:39;10.70;99.90
54832;DHT22;40730;53.068;6.572;2023-07-20T04:00:05;10.70;99.90
54832;DHT22;40730;53.068;6.572;2023-07-20T04:02:33;10.70;99.90
54832;DHT22;40730;53.068;6.572;2023-07-20T04:04:58;10.70;99.90
54832;DHT22;40730;53.068;6.572;2023-07-20T04:07:24;10.70;99.90
54832;DHT22;40730;53.068;6.572;2023-07-20T04:09:50;10.80;99.90
54832;DHT22;40730;53.068;6.572;2023-07-20T04:12:15;10.80;99.90
54832;DHT22;40730;53.068;6.572;2023-07-20T04:14:41;10.90;99.90
54832;DHT22;40730;53.068;6.572;2023-07-20T04:17:07;11.00;99.90
54832;DHT22;40730;53.068;6.572;2023-07-20T04:19:33;11.10;99.90
54832;DHT22;40730;53.068;6.572;2023-07-20T04:21:58;11.10;99.90
54832;DHT22;40730;53.068;6.572;2023-07-20T04:24:24;11.20;99.90
54832;DHT22;40730;53.068;6.572;2023-07-20T04:26:50;11.20;99.90
54832;DHT22;40730;53.068;6.572;2023-07-20T04:29:15;11.30;99.90
54832;DHT22;40730;53.068;6.572;2023-07-20T04:31:41;11.40;99.90
54832;DHT22;40730;53.068;6.572;2023-07-20T04:34:07;11.40;99.90
54832;DHT22;40730;53.068;6.572;2023-07-20T04:36:32;11.40;99.90
54832;DHT22;40730;53.068;6.572;2023-07-20T04:38:58;11.50;99.90
54832;DHT22;40730;53.068;6.572;2023-07-20T04:41:23;11.50;99.90
54832;DHT22;40730;53.068;6.572;2023-07-20T04:43:50;11.60;99.90
54832;DHT22;40730;53.068;6.572;2023-07-20T04:46:16;11.70;99.90
54832;DHT22;40730;53.068;6.572;2023-07-20T04:48:43;11.80;99.90
54832;DHT22;40730;53.068;6.572;2023-07-20T04:51:09;11.80;99.90
54832;DHT22;40730;53.068;6.572;2023-07-20T04:53:35;11.80;99.90
54832;DHT22;40730;53.068;6.572;2023-07-20T04:56:01;11.90;99.90
54832;DHT22;40730;53.068;6.572;2023-07-20T04:58:26;11.90;99.90
54832;DHT22;40730;53.068;6.572;2023-07-20T05:00:53;11.90;99.90
54832;DHT22;40730;53.068;6.572;2023-07-20T05:03:19;12.00;99.90
54832;DHT22;40730;53.068;6.572;2023-07-20T05:05:44;11.90;99.90
54832;DHT22;40730;53.068;6.572;2023-07-20T05:08:10;12.00;99.90
54832;DHT22;40730;53.068;6.572;2023-07-20T05:10:35;12.10;99.90
54832;DHT22;40730;53.068;6.572;2023-07-20T05:13:01;12.10;99.90
54832;DHT22;40730;53.068;6.572;2023-07-20T05:15:27;12.20;99.90
54832;DHT22;40730;53.068;6.572;2023-07-20T05:17:52;12.30;99.90
54832;DHT22;40730;53.068;6.572;2023-07-20T05:20:18;12.70;99.90
54832;DHT22;40730;53.068;6.572;2023-07-20T05:22:44;12.30;99.90
54832;DHT22;40730;53.068;6.572;2023-07-20T05:25:11;12.40;99.90
54832;DHT22;40730;53.068;6.572;2023-07-20T05:27:37;12.40;99.90
54832;DHT22;40730;53.068;6.572;2023-07-20T05:30:03;12.40;99.90
54832;DHT22;40730;53.068;6.572;2023-07-20T05:32:29;12.50;99.90
54832;DHT22;40730;53.068;6.572;2023-07-20T05:34:55;12.70;99.90
54832;DHT22;40730;53.068;6.572;2023-07-20T05:37:21;12.70;99.90
54832;DHT22;40730;53.068;6.572;2023-07-20T05:39:47;12.80;99.90
54832;DHT22;40730;53.068;6.572;2023-07-20T05:42:13;12.90;99.90
54832;DHT22;40730;53.068;6.572;2023-07-20T05:44:39;13.00;99.90
54832;DHT22;40730;53.068;6.572;2023-07-20T05:47:05;13.10;99.90
54832;DHT22;40730;53.068;6.572;2023-07-20T05:49:31;13.30;99.90
54832;DHT22;40730;53.068;6.572;2023-07-20T05:51:56;13.40;99.90
54832;DHT22;40730;53.068;6.572;2023-07-20T05:54:24;13.50;99.90
54832;DHT22;40730;53.068;6.572;2023-07-20T05:56:49;13.50;99.90
54832;DHT22;40730;53.068;6.572;2023-07-20T05:59:15;13.60;99.90
54832;DHT22;40730;53.068;6.572;2023-07-20T06:01:42;13.60;99.90
54832;DHT22;40730;53.068;6.572;2023-07-20T06:04:08;13.70;99.90
54832;DHT22;40730;53.068;6.572;2023-07-20T06:06:33;13.70;99.90
54832;DHT22;40730;53.068;6.572;2023-07-20T06:09:00;13.80;99.90
54832;DHT22;40730;53.068;6.572;2023-07-20T06:11:30;13.80;99.90
54832;DHT22;40730;53.068;6.572;2023-07-20T06:13:56;13.90;99.90
54832;DHT22;40730;53.068;6.572;2023-07-20T06:16:22;14.10;99.90
54832;DHT22;40730;53.068;6.572;2023-07-20T06:18:48;14.00;99.90
54832;DHT22;40730;53.068;6.572;2023-07-20T06:21:13;14.10;99.90
54832;DHT22;40730;53.068;6.572;2023-07-20T06:23:40;14.10;99.90
54832;DHT22;40730;53.068;6.572;2023-07-20T06:26:06;14.20;99.90
54832;DHT22;40730;53.068;6.572;2023-07-20T06:28:33;14.30;99.90
54832;DHT22;40730;53.068;6.572;2023-07-20T06:31:02;14.50;99.90
54832;DHT22;40730;53.068;6.572;2023-07-20T06:33:29;14.60;99.90
54832;DHT22;40730;53.068;6.572;2023-07-20T06:35:54;14.80;99.90
54832;DHT22;40730;53.068;6.572;2023-07-20T06:38:22;14.80;99.90
54832;DHT22;40730;53.068;6.572;2023-07-20T06:40:49;15.00;99.90
54832;DHT22;40730;53.068;6.572;2023-07-20T06:43:15;15.10;99.90
54832;DHT22;40730;53.068;6.572;2023-07-20T06:45:41;15.20;99.90
54832;DHT22;40730;53.068;6.572;2023-07-20T06:48:07;15.30;99.90
54832;DHT22;40730;53.068;6.572;2023-07-20T06:50:33;15.50;99.90
54832;DHT22;40730;53.068;6.572;2023-07-20T06:52:59;15.60;99.90
54832;DHT22;40730;53.068;6.572;2023-07-20T06:55:26;15.70;99.90
54832;DHT22;40730;53.068;6.572;2023-07-20T06:57:51;15.70;99.90
54832;DHT22;40730;53.068;6.572;2023-07-20T07:00:17;15.90;99.90
54832;DHT22;40730;53.068;6.572;2023-07-20T07:02:43;16.00;99.90
54832;DHT22;40730;53.068;6.572;2023-07-20T07:05:09;16.00;99.90
54832;DHT22;40730;53.068;6.572;2023-07-20T07:07:35;16.10;99.90
54832;DHT22;40730;53.068;6.572;2023-07-20T07:10:01;16.20;99.90
54832;DHT22;40730;53.068;6.572;2023-07-20T07:12:30;16.40;99.90
54832;DHT22;40730;53.068;6.572;2023-07-20T07:14:55;16.50;99.90
54832;DHT22;40730;53.068;6.572;2023-07-20T07:17:21;16.70;99.90
54832;DHT22;40730;53.068;6.572;2023-07-20T07:19:46;16.80;99.90
54832;DHT22;40730;53.068;6.572;2023-07-20T07:22:12;16.90;99.90
54832;DHT22;40730;53.068;6.572;2023-07-20T07:24:39;17.00;99.90
54832;DHT22;40730;53.068;6.572;2023-07-20T07:27:08;16.90;99.90
54832;DHT22;40730;53.068;6.572;2023-07-20T07:29:33;16.90;99.90
54832;DHT22;40730;53.068;6.572;2023-07-20T07:31:59;16.90;99.90
54832;DHT22;40730;53.068;6.572;2023-07-20T07:34:25;17.10;99.90
54832;DHT22;40730;53.068;6.572;2023-07-20T07:36:51;17.20;99.90
54832;DHT22;40730;53.068;6.572;2023-07-20T07:39:17;17.40;99.90
54832;DHT22;40730;53.068;6.572;2023-07-20T07:41:42;17.70;99.90
54832;DHT22;40730;53.068;6.572;2023-07-20T07:44:08;18.00;99.90
54832;DHT22;40730;53.068;6.572;2023-07-20T07:46:33;18.20;99.90
54832;DHT22;40730;53.068;6.572;2023-07-20T07:48:59;18.30;99.90
54832;DHT22;40730;53.068;6.572;2023-07-20T07:51:25;18.50;99.90
54832;DHT22;40730;53.068;6.572;2023-07-20T07:53:52;18.50;99.90
54832;DHT22;40730;53.068;6.572;2023-07-20T07:56:18;18.30;99.90
54832;DHT22;40730;53.068;6.572;2023-07-20T07:58:48;18.10;99.90
54832;DHT22;40730;53.068;6.572;2023-07-20T08:01:14;18.00;99.90
54832;DHT22;40730;53.068;6.572;2023-07-20T08:03:40;18.10;99.90
54832;DHT22;40730;53.068;6.572;2023-07-20T08:06:05;18.10;99.90
54832;DHT22;40730;53.068;6.572;2023-07-20T08:08:32;18.20;99.90
54832;DHT22;40730;53.068;6.572;2023-07-20T08:10:58;18.30;99.90
54832;DHT22;40730;53.068;6.572;2023-07-20T08:13:24;18.70;99.90
54832;DHT22;40730;53.068;6.572;2023-07-20T08:15:51;18.80;99.90
54832;DHT22;40730;53.068;6.572;2023-07-20T08:18:19;18.50;99.90
54832;DHT22;40730;53.068;6.572;2023-07-20T08:20:45;18.50;99.90
54832;DHT22;40730;53.068;6.572;2023-07-20T08:23:12;18.70;99.90
54832;DHT22;40730;53.068;6.572;2023-07-20T08:25:38;18.90;99.90
54832;DHT22;40730;53.068;6.572;2023-07-20T08:28:07;19.10;99.90
54832;DHT22;40730;53.068;6.572;2023-07-20T08:30:47;19.10;99.90
54832;DHT22;40730;53.068;6.572;2023-07-20T08:33:14;19.40;99.90
54832;DHT22;40730;53.068;6.572;2023-07-20T08:35:40;19.70;99.90
54832;DHT22;40730;53.068;6.572;2023-07-20T08:38:06;19.80;99.90
54832;DHT22;40730;53.068;6.572;2023-07-20T08:40:33;19.70;99.90
54832;DHT22;40730;53.068;6.572;2023-07-20T08:43:00;19.70;99.90
54832;DHT22;40730;53.068;6.572;2023-07-20T08:45:28;19.50;99.90
54832;DHT22;40730;53.068;6.572;2023-07-20T08:47:56;19.20;99.90
54832;DHT22;40730;53.068;6.572;2023-07-20T08:50:22;18.90;99.90
54832;DHT22;40730;53.068;6.572;2023-07-20T08:52:48;18.70;99.90
54832;DHT22;40730;53.068;6.572;2023-07-20T08:55:15;18.30;99.90
54832;DHT22;40730;53.068;6.572;2023-07-20T08:57:41;18.00;99.90
54832;DHT22;40730;53.068;6.572;2023-07-20T09:00:11;17.70;99.90
54832;DHT22;40730;53.068;6.572;2023-07-20T09:02:39;17.60;99.90
54832;DHT22;40730;53.068;6.572;2023-07-20T09:05:09;17.70;99.90
54832;DHT22;40730;53.068;6.572;2023-07-20T09:07:36;18.10;99.90
54832;DHT22;40730;53.068;6.572;2023-07-20T09:10:02;18.40;99.90
54832;DHT22;40730;53.068;6.572;2023-07-20T09:12:36;18.90;99.90
54832;DHT22;40730;53.068;6.572;2023-07-20T09:15:02;19.50;99.90
54832;DHT22;40730;53.068;6.572;2023-07-20T09:17:28;20.00;99.90
54832;DHT22;40730;53.068;6.572;2023-07-20T09:19:54;20.40;99.90
54832;DHT22;40730;53.068;6.572;2023-07-20T09:22:19;20.80;99.90
54832;DHT22;40730;53.068;6.572;2023-07-20T09:24:45;21.00;99.90
54832;DHT22;40730;53.068;6.572;2023-07-20T09:27:11;21.10;99.90
54832;DHT22;40730;53.068;6.572;2023-07-20T09:29:50;21.30;99.90
54832;DHT22;40730;53.068;6.572;2023-07-20T09:32:20;21.30;99.90
54832;DHT22;40730;53.068;6.572;2023-07-20T09:34:47;21.10;99.90
54832;DHT22;40730;53.068;6.572;2023-07-20T09:37:12;20.70;99.90
54832;DHT22;40730;53.068;6.572;2023-07-20T09:39:45;20.20;99.90
54832;DHT22;40730;53.068;6.572;2023-07-20T09:42:14;19.70;99.90
54832;DHT22;40730;53.068;6.572;2023-07-20T09:44:43;19.30;99.90
54832;DHT22;40730;53.068;6.572;2023-07-20T09:47:09;19.20;99.90
54832;DHT22;40730;53.068;6.572;2023-07-20T09:49:41;19.10;99.90
54832;DHT22;40730;53.068;6.572;2023-07-20T09:52:08;19.10;99.90
54832;DHT22;40730;53.068;6.572;2023-07-20T09:54:37;19.10;99.90
54832;DHT22;40730;53.068;6.572;2023-07-20T09:57:04;19.10;99.90
54832;DHT22;40730;53.068;6.572;2023-07-20T09:59:32;19.00;99.90
54832;DHT22;40730;53.068;6.572;2023-07-20T10:01:58;19.00;99.90
54832;DHT22;40730;53.068;6.572;2023-07-20T10:04:26;19.50;99.90
54832;DHT22;40730;53.068;6.572;2023-07-20T10:06:54;20.00;99.90
54832;DHT22;40730;53.068;6.572;2023-07-20T10:09:22;20.30;99.90
54832;DHT22;40730;53.068;6.572;2023-07-20T10:11:53;20.80;99.90
54832;DHT22;40730;53.068;6.572;2023-07-20T10:14:22;21.20;99.90
54832;DHT22;40730;53.068;6.572;2023-07-20T10:16:50;21.70;99.90
54832;DHT22;40730;53.068;6.572;2023-07-20T10:19:43;21.90;99.90
54832;DHT22;40730;53.068;6.572;2023-07-20T10:22:20;22.40;98.70
54832;DHT22;40730;53.068;6.572;2023-07-20T10:24:49;22.90;97.50
54832;DHT22;40730;53.068;6.572;2023-07-20T10:27:15;23.50;97.80
54832;DHT22;40730;53.068;6.572;2023-07-20T10:29:41;23.70;96.50
54832;DHT22;40730;53.068;6.572;2023-07-20T10:32:08;23.60;96.10
54832;DHT22;40730;53.068;6.572;2023-07-20T10:34:34;23.30;95.40
54832;DHT22;40730;53.068;6.572;2023-07-20T10:37:00;22.50;95.70
54832;DHT22;40730;53.068;6.572;2023-07-20T10:39:27;21.70;95.80
54832;DHT22;40730;53.068;6.572;2023-07-20T10:42:09;21.20;97.20
54832;DHT22;40730;53.068;6.572;2023-07-20T10:44:39;20.90;98.30
54832;DHT22;40730;53.068;6.572;2023-07-20T10:47:12;21.10;98.40
54832;DHT22;40730;53.068;6.572;2023-07-20T10:50:00;20.90;97.60
54832;DHT22;40730;53.068;6.572;2023-07-20T10:52:26;20.80;97.50
54832;DHT22;40730;53.068;6.572;2023-07-20T10:55:09;20.80;98.80
54832;DHT22;40730;53.068;6.572;2023-07-20T10:57:35;20.70;98.90
54832;DHT22;40730;53.068;6.572;2023-07-20T11:00:14;20.50;98.60
54832;DHT22;40730;53.068;6.572;2023-07-20T11:02:58;20.20;99.60
54832;DHT22;40730;53.068;6.572;2023-07-20T11:05:38;20.20;99.90
54832;DHT22;40730;53.068;6.572;2023-07-20T11:08:11;19.90;99.90
54832;DHT22;40730;53.068;6.572;2023-07-20T11:10:37;19.70;99.90
54832;DHT22;40730;53.068;6.572;2023-07-20T11:13:23;19.70;99.90
54832;DHT22;40730;53.068;6.572;2023-07-20T11:16:02;20.30;99.90
54832;DHT22;40730;53.068;6.572;2023-07-20T11:18:33;21.30;97.80
54832;DHT22;40730;53.068;6.572;2023-07-20T11:20:59;22.30;97.10
54832;DHT22;40730;53.068;6.572;2023-07-20T11:23:25;22.90;95.90
54832;DHT22;40730;53.068;6.572;2023-07-20T11:25:51;22.60;95.50
54832;DHT22;40730;53.068;6.572;2023-07-20T11:28:17;22.00;95.90
54832;DHT22;40730;53.068;6.572;2023-07-20T11:30:42;21.40;96.50
54832;DHT22;40730;53.068;6.572;2023-07-20T11:33:08;21.10;97.70
54832;DHT22;40730;53.068;6.572;2023-07-20T11:35:44;21.00;98.10
54832;DHT22;40730;53.068;6.572;2023-07-20T11:38:12;20.90;98.10
54832;DHT22;40730;53.068;6.572;2023-07-20T11:40:43;20.70;99.10
54832;DHT22;40730;53.068;6.572;2023-07-20T11:43:10;20.40;98.70
54832;DHT22;40730;53.068;6.572;2023-07-20T11:45:37;20.20;99.40
54832;DHT22;40730;53.068;6.572;2023-07-20T11:48:03;20.50;99.70
54832;DHT22;40730;53.068;6.572;2023-07-20T11:50:29;21.50;98.50
54832;DHT22;40730;53.068;6.572;2023-07-20T11:52:55;22.10;96.20
54832;DHT22;40730;53.068;6.572;2023-07-20T11:55:22;22.00;96.20
54832;DHT22;40730;53.068;6.572;2023-07-20T11:58:07;22.40;95.50
54832;DHT22;40730;53.068;6.572;2023-07-20T12:00:34;23.20;95.50
54832;DHT22;40730;53.068;6.572;2023-07-20T12:03:01;23.40;92.40
54832;DHT22;40730;53.068;6.572;2023-07-20T12:05:27;23.00;92.70
54832;DHT22;40730;53.068;6.572;2023-07-20T12:07:52;22.50;93.30
54832;DHT22;40730;53.068;6.572;2023-07-20T12:10:26;22.00;94.40
54832;DHT22;40730;53.068;6.572;2023-07-20T12:12:53;21.70;95.20
54832;DHT22;40730;53.068;6.572;2023-07-20T12:15:24;21.30;97.00
54832;DHT22;40730;53.068;6.572;2023-07-20T12:17:53;21.00;98.10
54832;DHT22;40730;53.068;6.572;2023-07-20T12:20:32;20.40;98.80
54832;DHT22;40730;53.068;6.572;2023-07-20T12:23:12;20.30;99.90
54832;DHT22;40730;53.068;6.572;2023-07-20T12:25:46;20.20;99.90
54832;DHT22;40730;53.068;6.572;2023-07-20T12:28:19;20.00;99.90
54832;DHT22;40730;53.068;6.572;2023-07-20T12:30:46;19.80;99.90
54832;DHT22;40730;53.068;6.572;2023-07-20T12:33:13;19.70;99.90
54832;DHT22;40730;53.068;6.572;2023-07-20T12:35:41;19.80;99.90
54832;DHT22;40730;53.068;6.572;2023-07-20T12:38:08;20.20;99.90
54832;DHT22;40730;53.068;6.572;2023-07-20T12:40:34;20.30;99.90
54832;DHT22;40730;53.068;6.572;2023-07-20T12:43:00;20.40;99.90
54832;DHT22;40730;53.068;6.572;2023-07-20T12:45:26;20.30;99.90
54832;DHT22;40730;53.068;6.572;2023-07-20T12:47:52;20.20;99.90
54832;DHT22;40730;53.068;6.572;2023-07-20T12:50:17;20.20;99.90
54832;DHT22;40730;53.068;6.572;2023-07-20T12:52:43;20.00;99.90
54832;DHT22;40730;53.068;6.572;2023-07-20T12:55:09;20.10;99.90
54832;DHT22;40730;53.068;6.572;2023-07-20T12:57:35;20.50;99.90
54832;DHT22;40730;53.068;6.572;2023-07-20T13:00:06;21.30;99.00
54832;DHT22;40730;53.068;6.572;2023-07-20T13:02:35;22.20;96.80
54832;DHT22;40730;53.068;6.572;2023-07-20T13:05:02;22.60;96.70
54832;DHT22;40730;53.068;6.572;2023-07-20T13:07:35;22.90;96.90
54832;DHT22;40730;53.068;6.572;2023-07-20T13:10:02;22.80;96.30
54832;DHT22;40730;53.068;6.572;2023-07-20T13:12:30;22.70;96.20
54832;DHT22;40730;53.068;6.572;2023-07-20T13:14:56;22.60;96.10
54832;DHT22;40730;53.068;6.572;2023-07-20T13:17:25;22.20;97.00
54832;DHT22;40730;53.068;6.572;2023-07-20T13:19:50;21.70;97.60
54832;DHT22;40730;53.068;6.572;2023-07-20T13:22:16;21.20;98.80
54832;DHT22;40730;53.068;6.572;2023-07-20T13:24:43;20.70;99.00
54832;DHT22;40730;53.068;6.572;2023-07-20T13:27:09;20.40;99.60
54832;DHT22;40730;53.068;6.572;2023-07-20T13:29:35;20.30;99.90
54832;DHT22;40730;53.068;6.572;2023-07-20T13:32:00;20.40;99.90
54832;DHT22;40730;53.068;6.572;2023-07-20T13:34:26;20.40;99.90
54832;DHT22;40730;53.068;6.572;2023-07-20T13:36:52;20.20;99.60
54832;DHT22;40730;53.068;6.572;2023-07-20T13:39:17;20.00;99.90
54832;DHT22;40730;53.068;6.572;2023-07-20T13:41:44;19.70;99.90
54832;DHT22;40730;53.068;6.572;2023-07-20T13:44:10;19.60;99.90
54832;DHT22;40730;53.068;6.572;2023-07-20T13:46:36;19.60;99.90
54832;DHT22;40730;53.068;6.572;2023-07-20T13:49:01;19.50;99.90
54832;DHT22;40730;53.068;6.572;2023-07-20T13:51:27;19.50;99.90
54832;DHT22;40730;53.068;6.572;2023-07-20T13:53:53;19.50;99.90
54832;DHT22;40730;53.068;6.572;2023-07-20T13:56:19;19.50;99.90
54832;DHT22;40730;53.068;6.572;2023-07-20T13:58:44;19.50;99.90
54832;DHT22;40730;53.068;6.572;2023-07-20T14:01:10;19.50;99.90
54832;DHT22;40730;53.068;6.572;2023-07-20T14:03:35;19.50;99.90
54832;DHT22;40730;53.068;6.572;2023-07-20T14:06:03;19.60;99.90
54832;DHT22;40730;53.068;6.572;2023-07-20T14:08:28;19.80;99.90
54832;DHT22;40730;53.068;6.572;2023-07-20T14:10:55;20.00;99.90
54832;DHT22;40730;53.068;6.572;2023-07-20T14:13:21;20.00;99.90
54832;DHT22;40730;53.068;6.572;2023-07-20T14:15:46;19.90;99.90
54832;DHT22;40730;53.068;6.572;2023-07-20T14:18:12;19.90;99.90
54832;DHT22;40730;53.068;6.572;2023-07-20T14:20:37;20.00;99.90
54832;DHT22;40730;53.068;6.572;2023-07-20T14:23:03;20.00;99.90
54832;DHT22;40730;53.068;6.572;2023-07-20T14:25:29;19.90;99.90
54832;DHT22;40730;53.068;6.572;2023-07-20T14:27:54;19.60;99.90
54832;DHT22;40730;53.068;6.572;2023-07-20T14:30:20;19.60;99.90
54832;DHT22;40730;53.068;6.572;2023-07-20T14:32:46;19.40;99.90
54832;DHT22;40730;53.068;6.572;2023-07-20T14:35:11;19.30;99.90
54832;DHT22;40730;53.068;6.572;2023-07-20T14:37:37;19.30;99.90
54832;DHT22;40730;53.068;6.572;2023-07-20T14:40:02;19.30;99.90
54832;DHT22;40730;53.068;6.572;2023-07-20T14:42:30;19.40;99.90
54832;DHT22;40730;53.068;6.572;2023-07-20T14:44:57;19.60;99.90
54832;DHT22;40730;53.068;6.572;2023-07-20T14:47:23;19.80;99.90
54832;DHT22;40730;53.068;6.572;2023-07-20T14:49:49;20.10;99.90
54832;DHT22;40730;53.068;6.572;2023-07-20T14:52:15;20.20;99.90
54832;DHT22;40730;53.068;6.572;2023-07-20T14:54:40;20.20;99.90
54832;DHT22;40730;53.068;6.572;2023-07-20T14:57:06;20.00;99.90
54832;DHT22;40730;53.068;6.572;2023-07-20T14:59:39;19.80;99.90
54832;DHT22;40730;53.068;6.572;2023-07-20T15:02:06;19.70;99.90
54832;DHT22;40730;53.068;6.572;2023-07-20T15:04:31;19.70;99.90
54832;DHT22;40730;53.068;6.572;2023-07-20T15:06:57;19.70;99.90
54832;DHT22;40730;53.068;6.572;2023-07-20T15:09:22;19.60;99.90
54832;DHT22;40730;53.068;6.572;2023-07-20T15:11:48;19.40;99.90
54832;DHT22;40730;53.068;6.572;2023-07-20T15:14:14;19.30;99.90
54832;DHT22;40730;53.068;6.572;2023-07-20T15:16:39;19.20;99.90
54832;DHT22;40730;53.068;6.572;2023-07-20T15:19:05;19.20;99.90
54832;DHT22;40730;53.068;6.572;2023-07-20T15:21:31;19.10;99.90
54832;DHT22;40730;53.068;6.572;2023-07-20T15:23:58;19.20;99.90
54832;DHT22;40730;53.068;6.572;2023-07-20T15:26:24;19.40;99.90
54832;DHT22;40730;53.068;6.572;2023-07-20T15:28:50;19.50;99.90
54832;DHT22;40730;53.068;6.572;2023-07-20T15:31:16;19.50;99.90
54832;DHT22;40730;53.068;6.572;2023-07-20T15:33:41;19.40;99.90
54832;DHT22;40730;53.068;6.572;2023-07-20T15:36:08;19.40;99.90
54832;DHT22;40730;53.068;6.572;2023-07-20T15:38:33;19.30;99.90
54832;DHT22;40730;53.068;6.572;2023-07-20T15:40:59;19.20;99.90